createdAt,value
2023-03-14T00:00:15.305Z,61.50
2023-03-14T00:02:42.386Z,61.50
2023-03-14T00:05:09.931Z,61.60
2023-03-14T00:07:37.804Z,61.40
2023-03-14T00:10:12.213Z,61.30
2023-03-14T00:12:39.236Z,61.30
2023-03-14T00:15:08.078Z,61.40
2023-03-14T00:17:35.966Z,61.60
2023-03-14T00:20:09.455Z,61.80
2023-03-14T00:22:37.057Z,61.80
2023-03-14T00:25:04.635Z,62.00
2023-03-14T00:27:32.146Z,62.10
2023-03-14T00:29:59.086Z,62.40
2023-03-14T00:32:26.134Z,62.80
2023-03-14T00:34:52.986Z,62.90
2023-03-14T00:37:19.901Z,63.00
2023-03-14T00:39:46.874Z,63.20
2023-03-14T00:42:13.783Z,63.30
2023-03-14T00:44:40.674Z,63.70
2023-03-14T00:47:07.796Z,63.90
2023-03-14T00:49:34.984Z,63.80
2023-03-14T00:52:01.884Z,63.80
2023-03-14T00:54:28.791Z,63.90
2023-03-14T00:56:56.190Z,64.10
2023-03-14T00:59:23.127Z,64.30
2023-03-14T01:01:50.130Z,64.50
2023-03-14T01:04:17.129Z,64.60
2023-03-14T01:06:44.004Z,65.00
2023-03-14T01:09:11.266Z,65.00
2023-03-14T01:11:38.281Z,65.50
2023-03-14T01:14:05.567Z,65.60
2023-03-14T01:16:34.668Z,65.60
2023-03-14T01:19:01.825Z,65.90
2023-03-14T01:21:30.592Z,65.90
2023-03-14T01:23:58.781Z,66.00
2023-03-14T01:26:26.538Z,66.10
2023-03-14T01:28:54.594Z,66.10
2023-03-14T01:31:21.512Z,66.10
2023-03-14T01:33:48.546Z,66.30
2023-03-14T01:36:15.737Z,66.30
2023-03-14T01:38:43.010Z,66.40
2023-03-14T01:41:13.498Z,66.50
2023-03-14T01:43:40.502Z,66.60
2023-03-14T01:46:07.463Z,66.80
2023-03-14T01:48:46.440Z,66.90
2023-03-14T01:51:16.509Z,67.00
2023-03-14T01:53:44.239Z,67.10
2023-03-14T01:56:13.427Z,67.20
2023-03-14T01:58:43.088Z,67.30
2023-03-14T02:01:10.902Z,67.40
2023-03-14T02:03:43.122Z,67.60
2023-03-14T02:06:10.223Z,67.70
2023-03-14T02:08:38.357Z,67.80
2023-03-14T02:11:05.406Z,67.70
2023-03-14T02:13:32.302Z,67.70
2023-03-14T02:15:59.261Z,67.80
2023-03-14T02:18:26.665Z,67.70
2023-03-14T02:21:10.112Z,67.70
2023-03-14T02:23:52.050Z,67.70
2023-03-14T02:26:28.907Z,67.70
2023-03-14T02:28:55.880Z,67.70
2023-03-14T02:31:23.542Z,67.60
2023-03-14T02:33:50.939Z,67.60
2023-03-14T02:36:18.830Z,67.60
2023-03-14T02:38:55.994Z,67.50
2023-03-14T02:41:23.122Z,67.40
2023-03-14T02:43:50.044Z,67.40
2023-03-14T02:46:21.620Z,67.30
2023-03-14T02:48:54.577Z,67.30
2023-03-14T02:51:22.461Z,67.20
2023-03-14T02:53:49.329Z,67.20
2023-03-14T02:56:16.286Z,67.10
2023-03-14T02:58:43.183Z,67.10
2023-03-14T03:01:10.121Z,67.00
2023-03-14T03:03:39.266Z,67.00
2023-03-14T03:06:06.407Z,66.90
2023-03-14T03:08:33.353Z,66.90
2023-03-14T03:11:00.393Z,66.60
2023-03-14T03:13:27.904Z,66.60
2023-03-14T03:15:54.880Z,66.60
2023-03-14T03:18:22.059Z,66.40
2023-03-14T03:20:48.962Z,66.40
2023-03-14T03:23:16.053Z,66.50
2023-03-14T03:25:43.096Z,66.50
2023-03-14T03:28:10.054Z,66.50
2023-03-14T03:30:40.579Z,66.50
2023-03-14T03:33:07.558Z,66.40
2023-03-14T03:35:34.603Z,66.40
2023-03-14T03:38:01.554Z,66.40
2023-03-14T03:40:28.490Z,66.30
2023-03-14T03:42:55.547Z,66.30
2023-03-14T03:45:22.598Z,66.10
2023-03-14T03:47:49.526Z,65.90
2023-03-14T03:50:16.592Z,65.80
2023-03-14T03:52:43.515Z,65.70
2023-03-14T03:55:10.512Z,65.80
2023-03-14T03:57:37.423Z,65.90
2023-03-14T04:00:06.226Z,66.00
2023-03-14T04:02:33.264Z,66.20
2023-03-14T04:05:00.364Z,66.40
2023-03-14T04:07:27.385Z,66.50
2023-03-14T04:09:54.315Z,66.60
2023-03-14T04:12:21.165Z,66.60
2023-03-14T04:14:48.457Z,66.60
2023-03-14T04:17:15.374Z,66.70
2023-03-14T04:19:43.309Z,66.70
2023-03-14T04:22:10.352Z,66.90
2023-03-14T04:24:37.213Z,67.00
2023-03-14T04:27:04.198Z,67.10
2023-03-14T04:29:31.090Z,67.10
2023-03-14T04:31:58.038Z,67.10
2023-03-14T04:34:25.000Z,67.20
2023-03-14T04:36:51.936Z,67.30
2023-03-14T04:39:18.881Z,67.30
2023-03-14T04:41:46.813Z,67.40
2023-03-14T04:44:13.719Z,67.40
2023-03-14T04:46:40.723Z,67.40
2023-03-14T04:49:07.721Z,67.40
2023-03-14T04:51:34.616Z,67.50
2023-03-14T04:54:01.536Z,67.50
2023-03-14T04:56:28.909Z,67.60
2023-03-14T04:58:55.963Z,67.70
2023-03-14T05:01:23.063Z,67.70
2023-03-14T05:03:50.125Z,67.80
2023-03-14T05:06:16.999Z,67.70
2023-03-14T05:08:43.957Z,67.50
2023-03-14T05:11:11.409Z,67.70
2023-03-14T05:13:40.206Z,67.70
2023-03-14T05:16:08.372Z,67.80
2023-03-14T05:18:35.340Z,68.00
2023-03-14T05:21:02.261Z,68.10
2023-03-14T05:23:29.222Z,68.10
2023-03-14T05:25:56.132Z,68.10
2023-03-14T05:28:23.092Z,68.30
2023-03-14T05:30:49.990Z,68.60
2023-03-14T05:33:16.894Z,69.10
2023-03-14T05:35:44.234Z,69.90
2023-03-14T05:38:11.232Z,70.70
2023-03-14T05:40:38.338Z,71.00
2023-03-14T05:43:05.320Z,71.50
2023-03-14T05:45:34.452Z,71.80
2023-03-14T05:48:01.519Z,72.10
2023-03-14T05:50:28.423Z,72.30
2023-03-14T05:52:55.281Z,72.70
2023-03-14T05:55:22.178Z,73.00
2023-03-14T05:57:49.013Z,73.20
2023-03-14T06:00:16.191Z,73.40
2023-03-14T06:02:43.162Z,73.70
2023-03-14T06:05:10.110Z,73.90
2023-03-14T06:07:38.435Z,74.10
2023-03-14T06:10:05.619Z,74.30
2023-03-14T06:12:32.514Z,74.50
2023-03-14T06:14:59.628Z,74.70
2023-03-14T06:17:26.728Z,75.00
2023-03-14T06:19:53.651Z,75.10
2023-03-14T06:22:21.001Z,75.30
2023-03-14T06:24:47.880Z,75.50
2023-03-14T06:27:14.870Z,75.90
2023-03-14T06:29:42.135Z,75.90
2023-03-14T06:32:09.026Z,76.10
2023-03-14T06:34:36.011Z,76.30
2023-03-14T06:37:02.905Z,76.50
2023-03-14T06:39:30.116Z,76.80
2023-03-14T06:41:58.001Z,76.90
2023-03-14T06:44:25.586Z,77.20
2023-03-14T06:46:52.510Z,77.30
2023-03-14T06:49:19.450Z,77.60
2023-03-14T06:51:46.344Z,77.70
2023-03-14T06:54:14.566Z,77.80
2023-03-14T06:56:42.780Z,78.00
2023-03-14T06:59:10.153Z,78.00
2023-03-14T07:01:37.643Z,78.00
2023-03-14T07:04:05.793Z,78.00
2023-03-14T07:06:34.696Z,78.10
2023-03-14T07:09:03.806Z,78.20
2023-03-14T07:11:32.526Z,78.30
2023-03-14T07:14:00.462Z,78.30
2023-03-14T07:16:30.265Z,78.30
2023-03-14T07:18:57.968Z,78.40
2023-03-14T07:21:25.762Z,78.70
2023-03-14T07:23:52.712Z,78.80
2023-03-14T07:26:19.663Z,78.70
2023-03-14T07:28:46.614Z,78.80
2023-03-14T07:31:13.569Z,79.00
2023-03-14T07:33:40.510Z,78.90
2023-03-14T07:36:07.660Z,79.00
2023-03-14T07:38:34.598Z,79.00
2023-03-14T07:41:02.299Z,79.00
2023-03-14T07:43:29.294Z,79.00
2023-03-14T07:45:59.538Z,78.90
2023-03-14T07:48:28.048Z,79.00
2023-03-14T07:50:55.903Z,79.10
2023-03-14T07:53:23.146Z,79.10
2023-03-14T07:55:51.410Z,79.20
2023-03-14T07:58:18.335Z,79.30
2023-03-14T08:00:45.258Z,79.30
2023-03-14T08:03:12.127Z,79.30
2023-03-14T08:05:42.813Z,79.40
2023-03-14T08:08:09.857Z,79.40
2023-03-14T08:10:36.796Z,79.40
2023-03-14T08:13:03.668Z,79.50
2023-03-14T08:15:31.682Z,79.50
2023-03-14T08:17:58.738Z,79.60
2023-03-14T08:20:26.949Z,79.50
2023-03-14T08:22:54.095Z,79.50
2023-03-14T08:25:20.985Z,79.50
2023-03-14T08:27:47.793Z,79.60
2023-03-14T08:30:17.462Z,79.60
2023-03-14T08:32:44.468Z,79.50
2023-03-14T08:35:11.984Z,79.50
2023-03-14T08:37:38.840Z,79.40
2023-03-14T08:40:11.019Z,79.50
2023-03-14T08:42:38.818Z,79.60
2023-03-14T08:45:06.303Z,79.80
2023-03-14T08:47:33.145Z,79.90
2023-03-14T08:50:00.110Z,80.10
2023-03-14T08:52:27.144Z,80.10
2023-03-14T08:54:54.036Z,80.10
2023-03-14T08:57:22.915Z,79.80
2023-03-14T08:59:49.799Z,79.90
2023-03-14T09:02:16.693Z,79.90
2023-03-14T09:04:43.610Z,79.80
2023-03-14T09:07:10.526Z,79.90
2023-03-14T09:09:37.778Z,79.90
2023-03-14T09:12:05.873Z,80.00
2023-03-14T09:14:33.200Z,80.00
2023-03-14T09:17:00.101Z,79.80
2023-03-14T09:19:26.952Z,80.10
2023-03-14T09:21:53.867Z,80.10
2023-03-14T09:24:20.747Z,80.10
2023-03-14T09:26:47.663Z,80.00
2023-03-14T09:29:14.559Z,80.00
2023-03-14T09:31:41.529Z,80.00
2023-03-14T09:34:08.399Z,80.10
2023-03-14T09:36:35.288Z,80.20
2023-03-14T09:39:02.160Z,80.40
2023-03-14T09:41:31.029Z,80.40
2023-03-14T09:44:03.465Z,80.40
2023-03-14T09:46:31.886Z,80.50
2023-03-14T09:48:58.784Z,80.70
2023-03-14T09:51:27.002Z,80.80
2023-03-14T09:53:54.112Z,80.80
2023-03-14T09:56:22.661Z,80.80
2023-03-14T09:58:52.745Z,81.00
2023-03-14T10:01:21.854Z,81.10
2023-03-14T10:03:48.821Z,81.30
2023-03-14T10:06:20.932Z,81.40
2023-03-14T10:08:47.915Z,81.40
2023-03-14T10:11:18.796Z,81.50
2023-03-14T10:14:08.709Z,81.50
2023-03-14T10:16:42.875Z,81.80
2023-03-14T10:19:14.378Z,82.20
2023-03-14T10:21:41.300Z,82.10
2023-03-14T10:24:09.158Z,82.10
2023-03-14T10:26:36.189Z,82.20
2023-03-14T10:29:04.864Z,82.30
2023-03-14T10:31:47.451Z,82.30
2023-03-14T10:34:17.085Z,82.40
2023-03-14T10:36:43.987Z,82.50
2023-03-14T10:39:26.734Z,82.60
2023-03-14T10:41:55.047Z,82.60
2023-03-14T10:44:26.914Z,82.40
2023-03-14T10:47:03.660Z,82.50
2023-03-14T10:49:37.972Z,82.60
2023-03-14T10:52:14.411Z,82.40
2023-03-14T10:54:41.296Z,82.50
2023-03-14T10:57:08.408Z,82.60
2023-03-14T10:59:36.936Z,82.50
2023-03-14T11:02:16.070Z,82.40
2023-03-14T11:04:42.995Z,82.50
2023-03-14T11:07:12.914Z,82.60
2023-03-14T11:09:42.965Z,82.50
2023-03-14T11:12:29.774Z,82.50
2023-03-14T11:15:01.253Z,82.40
2023-03-14T11:17:28.084Z,82.30
2023-03-14T11:19:56.086Z,82.50
2023-03-14T11:22:23.885Z,82.40
2023-03-14T11:25:09.429Z,82.40
2023-03-14T11:27:42.858Z,82.30
2023-03-14T11:30:18.900Z,82.60
2023-03-14T11:32:57.441Z,82.60
2023-03-14T11:35:27.734Z,82.70
2023-03-14T11:38:05.205Z,82.60
2023-03-14T11:40:32.482Z,82.60
2023-03-14T11:43:15.085Z,82.50
2023-03-14T11:45:43.352Z,82.50
2023-03-14T11:48:20.017Z,82.40
2023-03-14T11:50:48.740Z,82.10
2023-03-14T11:53:19.325Z,82.00
2023-03-14T11:55:46.973Z,82.00
2023-03-14T11:58:34.076Z,81.90
2023-03-14T12:01:04.276Z,81.70
2023-03-14T12:03:44.862Z,81.50
2023-03-14T12:06:21.340Z,81.60
2023-03-14T12:08:58.707Z,81.60
2023-03-14T12:11:28.531Z,81.50
2023-03-14T12:13:55.608Z,81.50
2023-03-14T12:16:25.401Z,81.50
2023-03-14T12:18:53.174Z,81.40
2023-03-14T12:21:20.508Z,81.30
2023-03-14T12:23:50.416Z,81.30
2023-03-14T12:26:19.022Z,81.30
2023-03-14T12:28:51.376Z,81.00
2023-03-14T12:31:33.542Z,80.90
2023-03-14T12:34:12.443Z,80.40
2023-03-14T12:36:45.422Z,80.20
2023-03-14T12:39:31.051Z,80.20
2023-03-14T12:42:20.991Z,79.90
2023-03-14T12:44:49.151Z,79.30
2023-03-14T12:47:19.240Z,78.90
2023-03-14T12:49:58.483Z,78.50
2023-03-14T12:52:43.973Z,78.50
2023-03-14T12:55:16.260Z,78.70
2023-03-14T12:57:43.173Z,78.70
2023-03-14T13:00:23.536Z,78.50
2023-03-14T13:02:51.252Z,78.30
2023-03-14T13:05:26.344Z,78.20
2023-03-14T13:07:58.482Z,78.00
2023-03-14T13:10:34.268Z,78.00
2023-03-14T13:13:28.802Z,77.80
2023-03-14T13:16:12.469Z,77.80
2023-03-14T13:18:44.624Z,77.70
2023-03-14T13:21:14.680Z,77.70
2023-03-14T13:23:41.610Z,77.60
2023-03-14T13:26:14.610Z,77.50
2023-03-14T13:28:43.164Z,77.20
2023-03-14T13:31:21.117Z,77.10
2023-03-14T13:33:47.998Z,77.10
2023-03-14T13:36:22.757Z,77.10
2023-03-14T13:38:56.337Z,76.80
2023-03-14T13:41:24.961Z,76.70
2023-03-14T13:43:51.954Z,76.70
2023-03-14T13:46:23.170Z,76.70
2023-03-14T13:48:59.532Z,76.70
2023-03-14T13:51:30.568Z,76.70
2023-03-14T13:53:57.560Z,76.80
2023-03-14T13:56:25.853Z,76.90
2023-03-14T13:58:53.477Z,77.00
2023-03-14T14:01:29.075Z,77.10
2023-03-14T14:03:57.472Z,77.10
2023-03-14T14:06:24.394Z,77.10
2023-03-14T14:08:51.724Z,77.10
2023-03-14T14:11:44.880Z,77.00
2023-03-14T14:14:21.347Z,76.80
2023-03-14T14:16:48.758Z,76.50
2023-03-14T14:19:17.130Z,76.60
2023-03-14T14:21:44.189Z,76.60
2023-03-14T14:24:13.955Z,76.50
2023-03-14T14:26:41.907Z,76.20
2023-03-14T14:29:27.641Z,76.10
2023-03-14T14:32:10.554Z,75.90
2023-03-14T14:34:56.298Z,75.80
2023-03-14T14:37:23.780Z,75.60
2023-03-14T14:39:52.524Z,75.40
2023-03-14T14:42:23.218Z,75.20
2023-03-14T14:44:52.495Z,74.70
2023-03-14T14:47:20.986Z,74.70
2023-03-14T14:49:48.645Z,74.60
2023-03-14T14:52:17.354Z,74.30
2023-03-14T14:54:49.696Z,74.30
2023-03-14T14:57:29.590Z,74.10
2023-03-14T14:59:57.437Z,74.10
2023-03-14T15:02:50.589Z,74.30
2023-03-14T15:05:18.792Z,74.30
2023-03-14T15:07:45.952Z,74.30
2023-03-14T15:10:13.650Z,74.30
2023-03-14T15:12:41.236Z,74.20
2023-03-14T15:15:08.709Z,74.20
2023-03-14T15:17:37.254Z,74.20
2023-03-14T15:20:08.194Z,74.40
2023-03-14T15:22:35.296Z,74.40
2023-03-14T15:25:02.135Z,74.40
2023-03-14T15:27:29.961Z,74.30
2023-03-14T15:29:56.857Z,74.40
2023-03-14T15:32:23.726Z,74.40
2023-03-14T15:34:50.711Z,74.60
2023-03-14T15:37:17.985Z,74.80
2023-03-14T15:39:44.862Z,75.00
2023-03-14T15:42:12.005Z,75.00
2023-03-14T15:44:40.201Z,75.10
2023-03-14T15:47:07.415Z,75.20
2023-03-14T15:49:34.331Z,75.20
2023-03-14T15:52:01.344Z,75.20
2023-03-14T15:54:29.501Z,75.20
2023-03-14T15:56:57.212Z,75.40
2023-03-14T15:59:24.934Z,75.50
2023-03-14T16:01:52.092Z,75.60
2023-03-14T16:04:19.260Z,75.80
2023-03-14T16:06:46.678Z,76.10
2023-03-14T16:09:13.804Z,76.20
2023-03-14T16:11:40.822Z,76.20
2023-03-14T16:14:07.794Z,76.30
2023-03-14T16:16:35.509Z,76.40
2023-03-14T16:19:03.328Z,76.50
2023-03-14T16:21:30.164Z,76.70
2023-03-14T16:23:57.088Z,76.80
2023-03-14T16:26:24.015Z,76.70
2023-03-14T16:28:50.879Z,76.80
2023-03-14T16:31:21.643Z,77.00
2023-03-14T16:33:49.204Z,77.10
2023-03-14T16:36:16.189Z,77.30
2023-03-14T16:38:44.168Z,77.20
2023-03-14T16:41:11.036Z,77.20
2023-03-14T16:43:38.041Z,77.30
2023-03-14T16:46:06.069Z,77.30
2023-03-14T16:48:33.233Z,77.30
2023-03-14T16:51:00.202Z,77.10
2023-03-14T16:53:31.092Z,77.10
2023-03-14T16:55:59.036Z,77.00
2023-03-14T16:58:26.355Z,76.80
2023-03-14T17:00:53.792Z,76.80
2023-03-14T17:03:20.837Z,76.80
2023-03-14T17:05:49.014Z,76.60
2023-03-14T17:08:17.019Z,76.60
2023-03-14T17:10:43.895Z,76.50
2023-03-14T17:13:10.913Z,76.40
2023-03-14T17:15:38.116Z,75.70
2023-03-14T17:18:05.844Z,75.00
2023-03-14T17:20:34.028Z,74.80
2023-03-14T17:23:00.990Z,74.90
2023-03-14T17:25:27.941Z,74.90
2023-03-14T17:27:56.699Z,75.00
2023-03-14T17:30:23.730Z,74.40
2023-03-14T17:32:52.166Z,74.70
2023-03-14T17:35:19.161Z,74.90
2023-03-14T17:37:45.998Z,75.20
2023-03-14T17:40:12.895Z,75.40
2023-03-14T17:42:39.876Z,75.50
2023-03-14T17:45:07.437Z,75.50
2023-03-14T17:47:34.424Z,75.50
2023-03-14T17:50:05.420Z,75.50
2023-03-14T17:52:37.044Z,75.50
2023-03-14T17:55:04.753Z,75.70
2023-03-14T17:57:32.123Z,75.60
2023-03-14T17:59:59.122Z,75.40
2023-03-14T18:02:26.359Z,75.20
2023-03-14T18:04:54.047Z,75.60
2023-03-14T18:07:21.063Z,75.50
2023-03-14T18:09:48.058Z,75.40
2023-03-14T18:12:15.340Z,75.40
2023-03-14T18:14:44.530Z,75.40
2023-03-14T18:17:15.458Z,75.40
2023-03-14T18:19:42.541Z,75.40
2023-03-14T18:22:09.491Z,75.50
2023-03-14T18:24:36.349Z,75.20
2023-03-14T18:27:03.360Z,75.10
2023-03-14T18:29:30.429Z,75.00
2023-03-14T18:31:58.577Z,74.70
2023-03-14T18:34:25.998Z,74.60
2023-03-14T18:36:53.395Z,74.60
2023-03-14T18:39:21.551Z,74.50
2023-03-14T18:41:48.481Z,74.30
2023-03-14T18:44:15.595Z,74.00
2023-03-14T18:46:42.671Z,73.50
2023-03-14T18:49:10.881Z,73.40
2023-03-14T18:51:39.553Z,73.20
2023-03-14T18:54:09.799Z,73.20
2023-03-14T18:56:37.764Z,73.20
2023-03-14T18:59:04.669Z,72.80
2023-03-14T19:01:31.676Z,72.80
2023-03-14T19:03:59.209Z,72.50
2023-03-14T19:06:27.994Z,72.50
2023-03-14T19:08:54.886Z,72.40
2023-03-14T19:11:21.750Z,72.40
2023-03-14T19:13:48.715Z,72.30
2023-03-14T19:16:16.118Z,71.90
2023-03-14T19:18:43.159Z,72.00
2023-03-14T19:21:12.441Z,71.80
2023-03-14T19:23:40.144Z,71.60
2023-03-14T19:26:07.388Z,71.60
2023-03-14T19:28:34.338Z,71.50
2023-03-14T19:31:05.275Z,71.20
2023-03-14T19:33:32.491Z,71.20
2023-03-14T19:35:59.492Z,71.30
2023-03-14T19:38:26.446Z,71.10
2023-03-14T19:40:56.576Z,71.10
2023-03-14T19:43:23.554Z,71.00
2023-03-14T19:45:50.541Z,70.80
2023-03-14T19:48:17.633Z,70.70
2023-03-14T19:50:44.713Z,70.20
2023-03-14T19:53:11.716Z,70.20
2023-03-14T19:55:38.653Z,70.10
2023-03-14T19:58:05.637Z,69.80
2023-03-14T20:00:32.566Z,69.50
2023-03-14T20:02:59.719Z,69.50
2023-03-14T20:05:26.657Z,69.50
2023-03-14T20:07:53.533Z,69.40
2023-03-14T20:10:24.575Z,69.50
2023-03-14T20:12:51.854Z,69.40
2023-03-14T20:15:20.069Z,69.30
2023-03-14T20:17:48.311Z,69.30
2023-03-14T20:20:15.288Z,69.40
2023-03-14T20:22:42.202Z,69.30
2023-03-14T20:25:10.485Z,69.20
2023-03-14T20:27:37.695Z,69.20
2023-03-14T20:30:11.127Z,69.00
2023-03-14T20:32:38.412Z,68.80
2023-03-14T20:35:05.783Z,68.70
2023-03-14T20:37:32.961Z,68.60
2023-03-14T20:39:59.931Z,68.50
2023-03-14T20:42:27.294Z,68.50
2023-03-14T20:44:54.720Z,68.40
2023-03-14T20:47:21.763Z,68.40
2023-03-14T20:49:48.743Z,68.20
2023-03-14T20:52:16.002Z,68.30
2023-03-14T20:54:42.906Z,68.40
2023-03-14T20:57:09.877Z,68.30
2023-03-14T20:59:38.192Z,68.20
2023-03-14T21:02:06.125Z,68.10
2023-03-14T21:04:34.432Z,67.90
2023-03-14T21:07:01.384Z,67.70
2023-03-14T21:09:28.291Z,67.40
2023-03-14T21:11:55.429Z,67.30
2023-03-14T21:14:22.820Z,67.20
2023-03-14T21:16:50.481Z,67.00
2023-03-14T21:19:17.491Z,66.50
2023-03-14T21:21:44.402Z,66.40
2023-03-14T21:24:11.405Z,66.40
2023-03-14T21:26:38.280Z,66.20
2023-03-14T21:29:05.167Z,65.70
2023-03-14T21:31:32.222Z,65.60
2023-03-14T21:33:59.253Z,65.40
2023-03-14T21:36:26.336Z,65.20
2023-03-14T21:38:53.302Z,64.70
2023-03-14T21:41:20.188Z,64.60
2023-03-14T21:43:47.107Z,64.30
2023-03-14T21:46:14.044Z,64.20
2023-03-14T21:48:41.026Z,64.20
2023-03-14T21:51:07.924Z,64.10
2023-03-14T21:53:35.234Z,64.00
2023-03-14T21:56:02.280Z,64.00
2023-03-14T21:58:29.218Z,63.80
2023-03-14T22:01:02.721Z,63.70
2023-03-14T22:03:34.187Z,63.70
2023-03-14T22:06:01.833Z,63.40
2023-03-14T22:08:29.075Z,63.30
2023-03-14T22:10:58.188Z,63.40
2023-03-14T22:13:25.703Z,63.40
2023-03-14T22:15:52.756Z,63.30
2023-03-14T22:18:19.681Z,63.20
2023-03-14T22:20:46.528Z,63.10
2023-03-14T22:23:13.435Z,63.00
2023-03-14T22:25:52.920Z,63.10
2023-03-14T22:28:20.473Z,63.10
2023-03-14T22:30:49.971Z,62.90
2023-03-14T22:33:18.208Z,62.90
2023-03-14T22:35:49.304Z,62.80
2023-03-14T22:38:16.250Z,62.80
2023-03-14T22:40:43.233Z,62.80
2023-03-14T22:43:10.237Z,62.60
2023-03-14T22:45:37.366Z,62.70
2023-03-14T22:48:04.420Z,62.60
2023-03-14T22:50:31.778Z,62.60
2023-03-14T22:52:59.037Z,62.50
2023-03-14T22:55:26.393Z,62.50
2023-03-14T22:57:53.795Z,62.40
2023-03-14T23:00:21.310Z,62.40
2023-03-14T23:02:48.560Z,62.20
2023-03-14T23:05:15.535Z,62.20
2023-03-14T23:07:42.454Z,62.10
2023-03-14T23:10:10.366Z,61.80
2023-03-14T23:12:37.346Z,61.60
2023-03-14T23:15:07.429Z,61.80
2023-03-14T23:17:34.589Z,61.60
2023-03-14T23:20:01.593Z,61.50
2023-03-14T23:22:29.193Z,61.60
2023-03-14T23:24:56.079Z,61.50
2023-03-14T23:27:23.028Z,61.50
2023-03-14T23:29:49.928Z,61.50
2023-03-14T23:32:17.228Z,61.50
2023-03-14T23:34:44.469Z,61.40
2023-03-14T23:37:14.259Z,61.30
2023-03-14T23:39:41.646Z,61.40
2023-03-14T23:42:08.621Z,61.40
2023-03-14T23:44:35.888Z,61.40
2023-03-14T23:47:03.703Z,61.30
2023-03-14T23:49:30.716Z,61.30
2023-03-14T23:51:57.600Z,61.30
2023-03-14T23:54:24.544Z,61.20
2023-03-14T23:56:51.933Z,61.30
2023-03-14T23:59:18.998Z,61.30
